Полярный

Карта отелей и гостиниц, располагающихся рядом с аэропортом Полярный :

Полярный Республика Саха (Якутия) 66° 24' 0.9612" N, 112° 1' 48.6588" E
Код аэродрома ИКАО
UERP
Код аэродрома RU
УЕРП
Координаты
N66.40027° E112.03018°
Превышение над уровнем моря
519
Основная полоса
17/35
Курс магнитный
173/353
Длина основной ВПП
3104
Ширина основной ВПП
44
Покрытие основной ВПП
Твёрдое (железобетон)
Освещение ВПП
Постоянное
Тип: 
Аэродром
Принадлежность: 
ГА
Статус: 
Действующий
Сайт: 
http://www.mapalrosa.com/index.php?option=com_content&view=article&id=24&Itemid=11
Страна: 
Россия
Регион: 
Республика Саха (Якутия)
Дополнительная информация: 
Горный. Соместного базирования (ФАВТ и АСК ДОСААФ России). Эксплуатант: Мирнинское АП Акционерной компании "АЛРОСА" (ОАО).
Схемы аэропортов: 
Погода: 

Авиационная погода в Полярном

Регион: 
Погода METAR: 
UERP 241700Z VRB01MPS 9999 BKN030 OVC100 M04/M05 Q0994 R35/492532 RMK QFE701
Время наблюдения
2021-10-24T17:00:00Z
Температура C
-4.0
Точка росы
-5.0
Направление ветра
0
Скорость ветра (узлы)
2
Метео видимость
6.21
Явления погоды
Условия полета
MVFR
Аэропорт подробнее: 

Найти трансфер

С помощью этой формы Вы можете найти трансфер из аэропорта Полярный в город, аэропорт или вокзал:

Карта места

Javascript is required to view this map.

Погода в аэропортах:

Авиационная погода в Синопе

Регион: 
Погода METAR: 
LTCM 241650Z 32008KT 210V360 7000 -SHRA SCT015 BKN025 BKN070 13/11 Q1026
Время наблюдения
2021-10-24T16:50:00Z
Температура C
13.0
Точка росы
11.0
Направление ветра
320
Скорость ветра (узлы)
8
Метео видимость
4.35
Явления погоды
-SHRA
Условия полета
MVFR

Авиационная погода в Краснодаре

Регион: 
Погода METAR: 
URKK 241700Z 36005MPS 9999 -SHRA BKN031CB 06/04 Q1024 R05R/290060 TEMPO 2000 TSRA SCT005 BKN020CB RMK QFE765
Время наблюдения
2021-10-24T17:00:00Z
Температура C
6.0
Точка росы
4.0
Направление ветра
360
Скорость ветра (узлы)
10
Метео видимость
6.21
Явления погоды
-SHRA
Условия полета
VFR
Аэропорт подробнее: 

Авиационная погода в Чимкенте

Регион: 
Погода METAR: 
UAII 241500Z 00000MPS 5000 FU NSC 11/02 Q1017 R28/0///70 NOSIG RMK QFE726/0968
Время наблюдения
2021-10-24T15:00:00Z
Температура C
11.0
Точка росы
2.0
Направление ветра
0
Скорость ветра (узлы)
0
Метео видимость
3.11
Явления погоды
FU
Условия полета
MVFR
Аэропорт подробнее: 

Авиационная погода в Москве - Остафьево

Погода METAR: 
UUMO 241700Z 32006MPS 9000 -SHSN BKN058CB 01/M01 Q1021 RESHSN R25/290050 NOSIG RMK QFE750/1001
Время наблюдения
2021-10-24T17:00:00Z
Температура C
1.0
Точка росы
-1.0
Направление ветра
320
Скорость ветра (узлы)
12
Метео видимость
5.59
Явления погоды
-SHSN
Условия полета
VFR
Аэропорт подробнее: